sensor_id;sensor_type;location;lat;lon;timestamp;pressure;altitude;pressure_sealevel;temperature;humidity
66547;BME280;53400;50.364;14.874;2023-04-25T00:02:14;97833.69;;;7.29;94.79
66547;BME280;53400;50.364;14.874;2023-04-25T00:04:47;97846.19;;;7.29;95.33
66547;BME280;53400;50.364;14.874;2023-04-25T00:07:28;97840.94;;;7.17;95.73
66547;BME280;53400;50.364;14.874;2023-04-25T00:10:02;97843.03;;;7.15;95.68
66547;BME280;53400;50.364;14.874;2023-04-25T00:12:41;97839.88;;;7.18;94.87
66547;BME280;53400;50.364;14.874;2023-04-25T00:15:15;97833.25;;;6.87;96.83
66547;BME280;53400;50.364;14.874;2023-04-25T00:17:43;97839.63;;;6.86;97.38
66547;BME280;53400;50.364;14.874;2023-04-25T00:20:17;97836.66;;;6.99;96.46
66547;BME280;53400;50.364;14.874;2023-04-25T00:22:50;97837.44;;;6.83;96.70
66547;BME280;53400;50.364;14.874;2023-04-25T00:25:24;97843.47;;;6.78;96.98
66547;BME280;53400;50.364;14.874;2023-04-25T00:27:55;97836.22;;;6.90;96.86
66547;BME280;53400;50.364;14.874;2023-04-25T00:30:25;97834.69;;;6.78;96.60
66547;BME280;53400;50.364;14.874;2023-04-25T00:32:53;97835.53;;;6.50;98.82
66547;BME280;53400;50.364;14.874;2023-04-25T00:35:26;97838.47;;;6.65;97.93
66547;BME280;53400;50.364;14.874;2023-04-25T00:37:54;97838.34;;;6.60;97.89
66547;BME280;53400;50.364;14.874;2023-04-25T00:40:27;97842.50;;;6.68;97.34
66547;BME280;53400;50.364;14.874;2023-04-25T00:42:59;97831.91;;;6.56;98.04
66547;BME280;53400;50.364;14.874;2023-04-25T00:45:30;97840.50;;;6.75;96.98
66547;BME280;53400;50.364;14.874;2023-04-25T00:48:10;97833.88;;;6.60;97.89
66547;BME280;53400;50.364;14.874;2023-04-25T00:50:41;97831.91;;;6.56;98.16
66547;BME280;53400;50.364;14.874;2023-04-25T00:53:12;97840.03;;;6.49;98.31
66547;BME280;53400;50.364;14.874;2023-04-25T00:55:41;97831.94;;;6.44;98.88
66547;BME280;53400;50.364;14.874;2023-04-25T00:58:10;97828.41;;;6.27;99.61
66547;BME280;53400;50.364;14.874;2023-04-25T01:00:40;97825.84;;;6.43;98.96
66547;BME280;53400;50.364;14.874;2023-04-25T01:03:28;97829.50;;;6.54;98.83
66547;BME280;53400;50.364;14.874;2023-04-25T01:06:01;97824.47;;;6.29;98.88
66547;BME280;53400;50.364;14.874;2023-04-25T01:08:36;97832.09;;;6.37;99.09
66547;BME280;53400;50.364;14.874;2023-04-25T01:11:09;97832.25;;;6.31;99.38
66547;BME280;53400;50.364;14.874;2023-04-25T01:13:36;97833.34;;;6.47;98.08
66547;BME280;53400;50.364;14.874;2023-04-25T01:16:06;97827.34;;;6.39;98.14
66547;BME280;53400;50.364;14.874;2023-04-25T01:18:41;97827.00;;;6.36;97.70
66547;BME280;53400;50.364;14.874;2023-04-25T01:21:26;97828.19;;;6.28;98.77
66547;BME280;53400;50.364;14.874;2023-04-25T01:24:05;97820.59;;;6.20;98.70
66547;BME280;53400;50.364;14.874;2023-04-25T01:26:36;97823.97;;;6.15;99.20
66547;BME280;53400;50.364;14.874;2023-04-25T01:29:08;97817.75;;;6.10;99.45
66547;BME280;53400;50.364;14.874;2023-04-25T01:31:41;97820.16;;;6.11;99.34
66547;BME280;53400;50.364;14.874;2023-04-25T01:34:09;97824.56;;;6.06;99.53
66547;BME280;53400;50.364;14.874;2023-04-25T01:37:00;97827.22;;;6.06;99.17
66547;BME280;53400;50.364;14.874;2023-04-25T01:39:31;97826.47;;;5.93;100.00
66547;BME280;53400;50.364;14.874;2023-04-25T01:42:04;97830.38;;;6.03;99.96
66547;BME280;53400;50.364;14.874;2023-04-25T01:44:32;97826.47;;;5.93;99.05
66547;BME280;53400;50.364;14.874;2023-04-25T01:47:06;97828.50;;;5.91;99.85
66547;BME280;53400;50.364;14.874;2023-04-25T01:49:42;97834.03;;;5.78;100.00
66547;BME280;53400;50.364;14.874;2023-04-25T01:52:11;97828.53;;;5.68;100.00
66547;BME280;53400;50.364;14.874;2023-04-25T01:54:47;97827.94;;;5.78;100.00
66547;BME280;53400;50.364;14.874;2023-04-25T01:57:23;97822.41;;;5.67;100.00
66547;BME280;53400;50.364;14.874;2023-04-25T02:00:05;97829.91;;;5.59;100.00
66547;BME280;53400;50.364;14.874;2023-04-25T02:02:46;97824.38;;;5.48;100.00
66547;BME280;53400;50.364;14.874;2023-04-25T02:05:19;97823.69;;;5.53;100.00
66547;BME280;53400;50.364;14.874;2023-04-25T02:08:01;97822.28;;;5.50;100.00
66547;BME280;53400;50.364;14.874;2023-04-25T02:10:29;97832.69;;;5.40;100.00
66547;BME280;53400;50.364;14.874;2023-04-25T02:13:09;97828.66;;;5.49;100.00
66547;BME280;53400;50.364;14.874;2023-04-25T02:15:41;97830.38;;;5.44;100.00
66547;BME280;53400;50.364;14.874;2023-04-25T02:18:21;97819.28;;;5.47;100.00
66547;BME280;53400;50.364;14.874;2023-04-25T02:20:50;97821.94;;;5.47;100.00
66547;BME280;53400;50.364;14.874;2023-04-25T02:23:29;97823.34;;;5.49;100.00
66547;BME280;53400;50.364;14.874;2023-04-25T02:26:01;97822.31;;;5.39;100.00
66547;BME280;53400;50.364;14.874;2023-04-25T02:28:42;97826.56;;;5.40;100.00
66547;BME280;53400;50.364;14.874;2023-04-25T02:31:08;97825.06;;;5.32;100.00
66547;BME280;53400;50.364;14.874;2023-04-25T02:33:36;97815.50;;;5.31;100.00
66547;BME280;53400;50.364;14.874;2023-04-25T02:36:07;97808.56;;;5.30;100.00
66547;BME280;53400;50.364;14.874;2023-04-25T02:38:43;97807.50;;;5.19;100.00
66547;BME280;53400;50.364;14.874;2023-04-25T02:41:15;97815.63;;;5.36;100.00
66547;BME280;53400;50.364;14.874;2023-04-25T02:44:06;97803.53;;;4.87;100.00
66547;BME280;53400;50.364;14.874;2023-04-25T02:46:46;97800.47;;;5.01;100.00
66547;BME280;53400;50.364;14.874;2023-04-25T02:49:14;97799.16;;;4.80;100.00
66547;BME280;53400;50.364;14.874;2023-04-25T02:51:44;97801.00;;;4.80;100.00
66547;BME280;53400;50.364;14.874;2023-04-25T02:54:14;97797.69;;;4.85;100.00
66547;BME280;53400;50.364;14.874;2023-04-25T02:56:42;97786.13;;;4.79;100.00
66547;BME280;53400;50.364;14.874;2023-04-25T02:59:25;97795.97;;;4.90;100.00
66547;BME280;53400;50.364;14.874;2023-04-25T03:02:13;97787.44;;;5.00;100.00
66547;BME280;53400;50.364;14.874;2023-04-25T03:04:41;97786.97;;;5.03;100.00
66547;BME280;53400;50.364;14.874;2023-04-25T03:07:08;97788.72;;;5.09;100.00
66547;BME280;53400;50.364;14.874;2023-04-25T03:09:39;97780.03;;;5.14;100.00
66547;BME280;53400;50.364;14.874;2023-04-25T03:12:06;97777.59;;;4.89;100.00
66547;BME280;53400;50.364;14.874;2023-04-25T03:14:50;97776.75;;;4.65;100.00
66547;BME280;53400;50.364;14.874;2023-04-25T03:17:22;97789.75;;;4.96;100.00
66547;BME280;53400;50.364;14.874;2023-04-25T03:19:58;97781.50;;;4.74;100.00
66547;BME280;53400;50.364;14.874;2023-04-25T03:22:26;97787.31;;;4.95;100.00
66547;BME280;53400;50.364;14.874;2023-04-25T03:25:11;97784.59;;;4.71;100.00
66547;BME280;53400;50.364;14.874;2023-04-25T03:27:43;97787.13;;;4.54;100.00
66547;BME280;53400;50.364;14.874;2023-04-25T03:30:09;97796.06;;;4.53;100.00
66547;BME280;53400;50.364;14.874;2023-04-25T03:32:43;97791.19;;;4.80;100.00
66547;BME280;53400;50.364;14.874;2023-04-25T03:35:13;97790.63;;;4.78;100.00
66547;BME280;53400;50.364;14.874;2023-04-25T03:37:53;97791.22;;;4.92;100.00
66547;BME280;53400;50.364;14.874;2023-04-25T03:40:29;97793.38;;;4.83;100.00
66547;BME280;53400;50.364;14.874;2023-04-25T03:43:03;97794.06;;;4.67;100.00
66547;BME280;53400;50.364;14.874;2023-04-25T03:45:35;97797.50;;;4.68;100.00
66547;BME280;53400;50.364;14.874;2023-04-25T03:48:08;97797.16;;;5.29;100.00
66547;BME280;53400;50.364;14.874;2023-04-25T03:50:56;97805.34;;;5.51;100.00
66547;BME280;53400;50.364;14.874;2023-04-25T03:54:02;97794.09;;;4.79;100.00
66547;BME280;53400;50.364;14.874;2023-04-25T03:56:32;97795.59;;;4.75;100.00
66547;BME280;53400;50.364;14.874;2023-04-25T03:59:02;97789.91;;;4.71;100.00
66547;BME280;53400;50.364;14.874;2023-04-25T04:01:50;97790.16;;;4.70;100.00
66547;BME280;53400;50.364;14.874;2023-04-25T04:04:23;97792.81;;;4.70;100.00
66547;BME280;53400;50.364;14.874;2023-04-25T04:07:02;97795.94;;;4.78;100.00
66547;BME280;53400;50.364;14.874;2023-04-25T04:09:36;97786.41;;;4.59;100.00
66547;BME280;53400;50.364;14.874;2023-04-25T04:12:12;97803.69;;;4.92;100.00
66547;BME280;53400;50.364;14.874;2023-04-25T04:14:53;97796.66;;;4.97;100.00
66547;BME280;53400;50.364;14.874;2023-04-25T04:17:44;97793.16;;;4.73;100.00
66547;BME280;53400;50.364;14.874;2023-04-25T04:20:12;97799.75;;;4.82;100.00
66547;BME280;53400;50.364;14.874;2023-04-25T04:22:51;97796.63;;;4.86;100.00
66547;BME280;53400;50.364;14.874;2023-04-25T04:25:19;97792.94;;;4.75;100.00
66547;BME280;53400;50.364;14.874;2023-04-25T04:27:52;97797.78;;;4.90;100.00
66547;BME280;53400;50.364;14.874;2023-04-25T04:30:27;97797.22;;;4.88;100.00
66547;BME280;53400;50.364;14.874;2023-04-25T04:33:16;97792.19;;;5.33;100.00
66547;BME280;53400;50.364;14.874;2023-04-25T04:35:49;97797.91;;;5.53;100.00
66547;BME280;53400;50.364;14.874;2023-04-25T04:38:19;97805.66;;;5.67;100.00
66547;BME280;53400;50.364;14.874;2023-04-25T04:40:46;97807.38;;;5.85;99.36
66547;BME280;53400;50.364;14.874;2023-04-25T04:43:21;97803.78;;;6.31;98.26
66547;BME280;53400;50.364;14.874;2023-04-25T04:45:54;97798.97;;;6.45;95.23
66547;BME280;53400;50.364;14.874;2023-04-25T04:48:35;97808.81;;;6.44;95.06
66547;BME280;53400;50.364;14.874;2023-04-25T04:51:08;97806.16;;;6.16;96.29
66547;BME280;53400;50.364;14.874;2023-04-25T04:53:40;97798.53;;;6.08;97.09
66547;BME280;53400;50.364;14.874;2023-04-25T04:56:14;97805.03;;;6.12;97.97
66547;BME280;53400;50.364;14.874;2023-04-25T04:58:47;97810.03;;;5.73;100.00
66547;BME280;53400;50.364;14.874;2023-04-25T05:01:21;97818.22;;;6.07;99.67
66547;BME280;53400;50.364;14.874;2023-04-25T05:03:59;97813.03;;;6.00;100.00
66547;BME280;53400;50.364;14.874;2023-04-25T05:06:28;97815.34;;;5.96;100.00
66547;BME280;53400;50.364;14.874;2023-04-25T05:09:02;97817.75;;;5.98;100.00
66547;BME280;53400;50.364;14.874;2023-04-25T05:11:38;97809.50;;;6.11;100.00
66547;BME280;53400;50.364;14.874;2023-04-25T05:14:13;97814.88;;;6.00;100.00
66547;BME280;53400;50.364;14.874;2023-04-25T05:16:45;97809.28;;;6.13;100.00
66547;BME280;53400;50.364;14.874;2023-04-25T05:19:16;97810.56;;;6.10;100.00
66547;BME280;53400;50.364;14.874;2023-04-25T05:21:48;97811.84;;;6.08;100.00
66547;BME280;53400;50.364;14.874;2023-04-25T05:24:20;97810.09;;;6.13;100.00
66547;BME280;53400;50.364;14.874;2023-04-25T05:26:56;97806.94;;;6.28;100.00
66547;BME280;53400;50.364;14.874;2023-04-25T05:29:38;97806.44;;;6.31;100.00
66547;BME280;53400;50.364;14.874;2023-04-25T05:32:15;97808.25;;;6.14;100.00
66547;BME280;53400;50.364;14.874;2023-04-25T05:34:59;97802.03;;;6.37;100.00
66547;BME280;53400;50.364;14.874;2023-04-25T05:37:29;97803.13;;;6.53;100.00
66547;BME280;53400;50.364;14.874;2023-04-25T05:40:08;97799.69;;;6.69;98.78
66547;BME280;53400;50.364;14.874;2023-04-25T05:42:40;97800.88;;;6.61;99.16
66547;BME280;53400;50.364;14.874;2023-04-25T05:45:11;97801.53;;;6.69;100.00
66547;BME280;53400;50.364;14.874;2023-04-25T05:47:38;97808.00;;;6.89;99.24
66547;BME280;53400;50.364;14.874;2023-04-25T05:50:11;97805.50;;;6.83;98.51
66547;BME280;53400;50.364;14.874;2023-04-25T05:52:38;97804.63;;;7.11;98.64
66547;BME280;53400;50.364;14.874;2023-04-25T05:55:12;97809.00;;;7.34;96.94
66547;BME280;53400;50.364;14.874;2023-04-25T05:57:47;97795.56;;;7.46;95.88
66547;BME280;53400;50.364;14.874;2023-04-25T06:00:20;97801.00;;;7.73;93.69
66547;BME280;53400;50.364;14.874;2023-04-25T06:02:52;97809.22;;;7.88;94.34
66547;BME280;53400;50.364;14.874;2023-04-25T06:05:25;97805.81;;;7.76;93.65
66547;BME280;53400;50.364;14.874;2023-04-25T06:07:51;97810.88;;;7.94;92.30
66547;BME280;53400;50.364;14.874;2023-04-25T06:10:19;97804.00;;;7.76;94.06
66547;BME280;53400;50.364;14.874;2023-04-25T06:12:49;97807.38;;;7.94;93.21
66547;BME280;53400;50.364;14.874;2023-04-25T06:15:22;97804.03;;;7.81;92.88
66547;BME280;53400;50.364;14.874;2023-04-25T06:17:48;97803.72;;;7.56;94.60
66547;BME280;53400;50.364;14.874;2023-04-25T06:20:16;97802.22;;;7.65;95.42
66547;BME280;53400;50.364;14.874;2023-04-25T06:22:45;97808.75;;;7.96;94.62
66547;BME280;53400;50.364;14.874;2023-04-25T06:25:13;97806.84;;;7.92;93.52
66547;BME280;53400;50.364;14.874;2023-04-25T06:27:40;97809.63;;;8.02;94.68
66547;BME280;53400;50.364;14.874;2023-04-25T06:30:08;97818.81;;;7.89;95.15
66547;BME280;53400;50.364;14.874;2023-04-25T06:32:37;97813.16;;;7.86;94.78
66547;BME280;53400;50.364;14.874;2023-04-25T06:35:07;97813.06;;;7.97;94.75
66547;BME280;53400;50.364;14.874;2023-04-25T06:37:38;97814.03;;;8.13;94.26
66547;BME280;53400;50.364;14.874;2023-04-25T06:40:12;97812.91;;;8.31;93.67
66547;BME280;53400;50.364;14.874;2023-04-25T06:42:39;97820.63;;;8.49;92.68
66547;BME280;53400;50.364;14.874;2023-04-25T06:45:13;97813.41;;;8.50;91.36
66547;BME280;53400;50.364;14.874;2023-04-25T06:47:43;97806.22;;;8.50;90.40
66547;BME280;53400;50.364;14.874;2023-04-25T06:50:16;97816.19;;;8.60;89.47
66547;BME280;53400;50.364;14.874;2023-04-25T06:52:46;97807.53;;;8.75;89.21
66547;BME280;53400;50.364;14.874;2023-04-25T06:55:17;97810.31;;;8.90;89.16
66547;BME280;53400;50.364;14.874;2023-04-25T06:57:46;97807.41;;;8.92;87.49
66547;BME280;53400;50.364;14.874;2023-04-25T07:00:15;97811.69;;;9.25;87.56
66547;BME280;53400;50.364;14.874;2023-04-25T07:02:50;97798.00;;;9.16;87.93
66547;BME280;53400;50.364;14.874;2023-04-25T07:05:19;97801.66;;;9.42;87.98
66547;BME280;53400;50.364;14.874;2023-04-25T07:07:48;97801.91;;;9.41;85.27
66547;BME280;53400;50.364;14.874;2023-04-25T07:10:16;97799.25;;;9.46;86.29
66547;BME280;53400;50.364;14.874;2023-04-25T07:12:48;97803.28;;;9.44;87.99
66547;BME280;53400;50.364;14.874;2023-04-25T07:15:22;97801.28;;;9.29;87.34
66547;BME280;53400;50.364;14.874;2023-04-25T07:17:56;97804.16;;;9.17;86.71
66547;BME280;53400;50.364;14.874;2023-04-25T07:20:23;97804.72;;;9.24;86.70
66547;BME280;53400;50.364;14.874;2023-04-25T07:22:59;97809.16;;;9.46;84.98
66547;BME280;53400;50.364;14.874;2023-04-25T07:25:33;97804.06;;;9.44;85.44
66547;BME280;53400;50.364;14.874;2023-04-25T07:28:03;97796.44;;;9.63;84.76
66547;BME280;53400;50.364;14.874;2023-04-25T07:30:35;97797.31;;;9.79;83.25
66547;BME280;53400;50.364;14.874;2023-04-25T07:33:06;97796.94;;;10.18;81.58
66547;BME280;53400;50.364;14.874;2023-04-25T07:35:44;97799.97;;;10.31;82.67
66547;BME280;53400;50.364;14.874;2023-04-25T07:38:10;97798.25;;;10.05;84.86
66547;BME280;53400;50.364;14.874;2023-04-25T07:40:41;97802.41;;;9.85;82.47
66547;BME280;53400;50.364;14.874;2023-04-25T07:43:11;97807.44;;;9.77;85.24
66547;BME280;53400;50.364;14.874;2023-04-25T07:45:51;97796.88;;;9.97;83.16
66547;BME280;53400;50.364;14.874;2023-04-25T07:48:26;97799.97;;;9.79;83.22
66547;BME280;53400;50.364;14.874;2023-04-25T07:51:02;97796.41;;;10.16;82.30
66547;BME280;53400;50.364;14.874;2023-04-25T07:53:35;97803.94;;;10.24;82.10
66547;BME280;53400;50.364;14.874;2023-04-25T07:56:07;97807.97;;;9.74;84.37
66547;BME280;53400;50.364;14.874;2023-04-25T07:58:39;97816.59;;;9.81;83.50
66547;BME280;53400;50.364;14.874;2023-04-25T08:01:07;97813.63;;;9.77;84.72
66547;BME280;53400;50.364;14.874;2023-04-25T08:03:45;97810.75;;;9.94;82.81
66547;BME280;53400;50.364;14.874;2023-04-25T08:06:12;97810.50;;;10.01;83.33
66547;BME280;53400;50.364;14.874;2023-04-25T08:08:38;97804.53;;;10.36;83.76
66547;BME280;53400;50.364;14.874;2023-04-25T08:11:06;97811.75;;;10.30;83.07
66547;BME280;53400;50.364;14.874;2023-04-25T08:13:37;97820.31;;;10.32;83.05
66547;BME280;53400;50.364;14.874;2023-04-25T08:16:08;97821.72;;;10.50;83.19
66547;BME280;53400;50.364;14.874;2023-04-25T08:18:45;97817.19;;;10.61;81.14
66547;BME280;53400;50.364;14.874;2023-04-25T08:21:24;97821.44;;;10.47;81.43
66547;BME280;53400;50.364;14.874;2023-04-25T08:23:53;97824.03;;;10.31;84.24
66547;BME280;53400;50.364;14.874;2023-04-25T08:26:22;97820.53;;;10.26;83.98
66547;BME280;53400;50.364;14.874;2023-04-25T08:28:52;97823.00;;;10.38;81.33
66547;BME280;53400;50.364;14.874;2023-04-25T08:31:23;97815.78;;;10.38;79.85
66547;BME280;53400;50.364;14.874;2023-04-25T08:33:54;97820.91;;;10.55;78.32
66547;BME280;53400;50.364;14.874;2023-04-25T08:36:27;97819.28;;;10.49;80.76
66547;BME280;53400;50.364;14.874;2023-04-25T08:38:54;97819.06;;;10.66;79.73
66547;BME280;53400;50.364;14.874;2023-04-25T08:41:27;97820.97;;;10.91;76.58
66547;BME280;53400;50.364;14.874;2023-04-25T08:43:58;97815.09;;;11.14;74.90
66547;BME280;53400;50.364;14.874;2023-04-25T08:46:31;97813.22;;;11.25;76.60
66547;BME280;53400;50.364;14.874;2023-04-25T08:49:08;97822.59;;;11.38;77.18
66547;BME280;53400;50.364;14.874;2023-04-25T08:51:41;97821.50;;;11.44;75.23
66547;BME280;53400;50.364;14.874;2023-04-25T08:54:13;97819.84;;;11.89;74.79
66547;BME280;53400;50.364;14.874;2023-04-25T08:56:48;97822.53;;;11.94;71.52
66547;BME280;53400;50.364;14.874;2023-04-25T08:59:21;97819.31;;;11.82;72.38
66547;BME280;53400;50.364;14.874;2023-04-25T09:01:53;97817.97;;;11.84;73.20
66547;BME280;53400;50.364;14.874;2023-04-25T09:04:23;97809.25;;;12.23;74.41
66547;BME280;53400;50.364;14.874;2023-04-25T09:06:59;97816.34;;;12.58;71.76
66547;BME280;53400;50.364;14.874;2023-04-25T09:09:29;97814.41;;;12.69;69.55
66547;BME280;53400;50.364;14.874;2023-04-25T09:11:59;97813.03;;;12.72;71.18
66547;BME280;53400;50.364;14.874;2023-04-25T09:14:30;97814.94;;;13.05;67.34
66547;BME280;53400;50.364;14.874;2023-04-25T09:17:02;97816.22;;;13.18;64.44
66547;BME280;53400;50.364;14.874;2023-04-25T09:19:40;97807.53;;;12.87;65.69
66547;BME280;53400;50.364;14.874;2023-04-25T09:22:09;97806.38;;;12.59;69.74
66547;BME280;53400;50.364;14.874;2023-04-25T09:24:42;97813.22;;;12.85;68.04
66547;BME280;53400;50.364;14.874;2023-04-25T09:27:23;97811.53;;;12.50;61.51
66547;BME280;53400;50.364;14.874;2023-04-25T09:30:07;97809.59;;;12.61;62.08
66547;BME280;53400;50.364;14.874;2023-04-25T09:32:59;97813.19;;;12.91;62.27
66547;BME280;53400;50.364;14.874;2023-04-25T09:36:01;97817.69;;;13.35;61.29
66547;BME280;53400;50.364;14.874;2023-04-25T09:38:41;97816.13;;;13.87;59.59
66547;BME280;53400;50.364;14.874;2023-04-25T09:41:23;97819.13;;;13.56;62.88
66547;BME280;53400;50.364;14.874;2023-04-25T09:43:58;97817.44;;;13.36;64.69
66547;BME280;53400;50.364;14.874;2023-04-25T09:46:34;97809.94;;;13.57;63.21
66547;BME280;53400;50.364;14.874;2023-04-25T09:49:09;97822.06;;;14.08;58.43
66547;BME280;53400;50.364;14.874;2023-04-25T09:51:42;97821.94;;;14.18;58.26
66547;BME280;53400;50.364;14.874;2023-04-25T09:54:30;97817.44;;;13.89;58.09
66547;BME280;53400;50.364;14.874;2023-04-25T09:57:08;97822.00;;;13.65;60.22
66547;BME280;53400;50.364;14.874;2023-04-25T09:59:42;97826.38;;;13.85;59.92
66547;BME280;53400;50.364;14.874;2023-04-25T10:02:14;97824.41;;;13.66;58.24
66547;BME280;53400;50.364;14.874;2023-04-25T10:04:53;97821.69;;;13.03;61.23
66547;BME280;53400;50.364;14.874;2023-04-25T10:07:30;97822.19;;;13.44;60.06
66547;BME280;53400;50.364;14.874;2023-04-25T10:10:06;97822.53;;;13.38;57.77
66547;BME280;53400;50.364;14.874;2023-04-25T10:12:36;97820.22;;;13.21;59.80
66547;BME280;53400;50.364;14.874;2023-04-25T10:15:10;97824.38;;;13.42;58.94
66547;BME280;53400;50.364;14.874;2023-04-25T10:17:46;97826.09;;;13.23;57.78
66547;BME280;53400;50.364;14.874;2023-04-25T10:20:14;97815.88;;;12.91;58.91
66547;BME280;53400;50.364;14.874;2023-04-25T10:22:48;97821.41;;;12.65;58.63
66547;BME280;53400;50.364;14.874;2023-04-25T10:25:20;97824.38;;;12.63;59.87
66547;BME280;53400;50.364;14.874;2023-04-25T10:27:50;97822.38;;;12.84;60.50
66547;BME280;53400;50.364;14.874;2023-04-25T10:30:20;97817.44;;;12.97;59.82
66547;BME280;53400;50.364;14.874;2023-04-25T10:32:58;97826.88;;;12.89;66.97
66547;BME280;53400;50.364;14.874;2023-04-25T10:35:36;97822.72;;;13.12;59.64
66547;BME280;53400;50.364;14.874;2023-04-25T10:38:16;97819.13;;;12.88;61.38
66547;BME280;53400;50.364;14.874;2023-04-25T10:41:03;97819.25;;;12.67;61.21
66547;BME280;53400;50.364;14.874;2023-04-25T10:43:39;97826.91;;;12.45;61.23
66547;BME280;53400;50.364;14.874;2023-04-25T10:46:15;97830.94;;;12.37;60.49
66547;BME280;53400;50.364;14.874;2023-04-25T10:48:45;97828.88;;;12.19;61.23
66547;BME280;53400;50.364;14.874;2023-04-25T10:51:22;97828.56;;;12.25;62.11
66547;BME280;53400;50.364;14.874;2023-04-25T10:54:04;97832.16;;;11.95;62.64
66547;BME280;53400;50.364;14.874;2023-04-25T10:56:41;97835.44;;;11.66;62.78
66547;BME280;53400;50.364;14.874;2023-04-25T10:59:22;97829.00;;;11.52;65.11
66547;BME280;53400;50.364;14.874;2023-04-25T11:01:58;97829.84;;;11.12;64.77
66547;BME280;53400;50.364;14.874;2023-04-25T11:04:35;97829.28;;;11.05;66.35
66547;BME280;53400;50.364;14.874;2023-04-25T11:07:13;97827.94;;;10.97;67.23
66547;BME280;53400;50.364;14.874;2023-04-25T11:09:49;97834.41;;;11.11;66.17
66547;BME280;53400;50.364;14.874;2023-04-25T11:12:18;97834.09;;;11.08;67.27
66547;BME280;53400;50.364;14.874;2023-04-25T11:14:47;97836.78;;;10.87;68.27
66547;BME280;53400;50.364;14.874;2023-04-25T11:17:21;97839.72;;;10.81;68.53
66547;BME280;53400;50.364;14.874;2023-04-25T11:19:53;97834.94;;;11.08;70.38
66547;BME280;53400;50.364;14.874;2023-04-25T11:22:24;97847.22;;;10.84;69.19
66547;BME280;53400;50.364;14.874;2023-04-25T11:24:57;97840.78;;;10.85;72.23
66547;BME280;53400;50.364;14.874;2023-04-25T11:27:26;97849.84;;;10.58;73.28
66547;BME280;53400;50.364;14.874;2023-04-25T11:29:56;97850.63;;;10.53;75.33
66547;BME280;53400;50.364;14.874;2023-04-25T11:32:42;97857.63;;;10.07;81.22
66547;BME280;53400;50.364;14.874;2023-04-25T11:35:13;97853.03;;;9.97;85.56
66547;BME280;53400;50.364;14.874;2023-04-25T11:37:47;97863.41;;;9.46;89.74
66547;BME280;53400;50.364;14.874;2023-04-25T11:40:20;97864.13;;;9.74;89.93
66547;BME280;53400;50.364;14.874;2023-04-25T11:43:01;97865.03;;;9.90;88.56
66547;BME280;53400;50.364;14.874;2023-04-25T11:45:33;97871.94;;;9.85;88.03
66547;BME280;53400;50.364;14.874;2023-04-25T11:48:14;97868.09;;;9.66;83.36
66547;BME280;53400;50.364;14.874;2023-04-25T11:50:45;97873.53;;;9.81;85.81
66547;BME280;53400;50.364;14.874;2023-04-25T11:53:13;97873.66;;;10.02;86.85
66547;BME280;53400;50.364;14.874;2023-04-25T11:55:44;97877.34;;;9.91;90.33
66547;BME280;53400;50.364;14.874;2023-04-25T11:58:25;97877.63;;;9.89;93.10
66547;BME280;53400;50.364;14.874;2023-04-25T12:01:00;97876.50;;;9.85;92.52
66547;BME280;53400;50.364;14.874;2023-04-25T12:03:45;97877.25;;;9.75;89.58
66547;BME280;53400;50.364;14.874;2023-04-25T12:06:17;97874.28;;;9.72;88.71
66547;BME280;53400;50.364;14.874;2023-04-25T12:08:59;97875.84;;;9.68;88.40
66547;BME280;53400;50.364;14.874;2023-04-25T12:11:46;97876.50;;;9.85;88.67
66547;BME280;53400;50.364;14.874;2023-04-25T12:14:24;97880.94;;;9.69;90.44
66547;BME280;53400;50.364;14.874;2023-04-25T12:16:58;97879.06;;;9.70;89.76
66547;BME280;53400;50.364;14.874;2023-04-25T12:19:36;97871.63;;;9.77;90.48
66547;BME280;53400;50.364;14.874;2023-04-25T12:22:24;97872.31;;;9.99;89.55
66547;BME280;53400;50.364;14.874;2023-04-25T12:24:58;97868.38;;;10.12;87.67
66547;BME280;53400;50.364;14.874;2023-04-25T12:27:36;97878.22;;;10.54;86.48
66547;BME280;53400;50.364;14.874;2023-04-25T12:30:12;97866.22;;;10.72;85.60
66547;BME280;53400;50.364;14.874;2023-04-25T12:32:45;97864.13;;;11.25;83.46
66547;BME280;53400;50.364;14.874;2023-04-25T12:35:26;97866.81;;;11.10;78.66
66547;BME280;53400;50.364;14.874;2023-04-25T12:38:03;97861.97;;;11.73;84.46
66547;BME280;53400;50.364;14.874;2023-04-25T12:40:37;97861.97;;;11.73;79.61
66547;BME280;53400;50.364;14.874;2023-04-25T12:43:13;97865.97;;;12.01;76.12
66547;BME280;53400;50.364;14.874;2023-04-25T12:45:57;97870.50;;;12.16;78.43
66547;BME280;53400;50.364;14.874;2023-04-25T12:48:42;97877.44;;;12.22;73.35
66547;BME280;53400;50.364;14.874;2023-04-25T12:51:16;97877.19;;;12.24;70.44
66547;BME280;53400;50.364;14.874;2023-04-25T12:53:43;97864.22;;;12.46;66.31
66547;BME280;53400;50.364;14.874;2023-04-25T12:56:15;97876.44;;;12.03;69.88
66547;BME280;53400;50.364;14.874;2023-04-25T12:58:51;97884.47;;;12.08;71.63
66547;BME280;53400;50.364;14.874;2023-04-25T13:01:19;97880.72;;;12.04;69.97
66547;BME280;53400;50.364;14.874;2023-04-25T13:03:47;97879.13;;;11.92;67.80
66547;BME280;53400;50.364;14.874;2023-04-25T13:06:19;97881.03;;;11.87;68.72
66547;BME280;53400;50.364;14.874;2023-04-25T13:08:55;97877.78;;;12.00;66.85
66547;BME280;53400;50.364;14.874;2023-04-25T13:11:24;97877.78;;;12.05;62.17
66547;BME280;53400;50.364;14.874;2023-04-25T13:13:54;97879.66;;;11.89;58.60
66547;BME280;53400;50.364;14.874;2023-04-25T13:16:22;97881.31;;;11.90;59.13
66547;BME280;53400;50.364;14.874;2023-04-25T13:18:59;97894.72;;;11.75;57.77
66547;BME280;53400;50.364;14.874;2023-04-25T13:21:30;97884.22;;;11.79;55.90
66547;BME280;53400;50.364;14.874;2023-04-25T13:23:59;97890.13;;;11.70;57.23
66547;BME280;53400;50.364;14.874;2023-04-25T13:26:29;97895.50;;;11.81;57.37
66547;BME280;53400;50.364;14.874;2023-04-25T13:29:00;97897.41;;;11.90;59.14